Time;durP1;ratioP1;P1;durP2;ratioP2;P2;SDS_P1;SDS_P2;PMS_P1;PMS_P2;Temp;Humidity;BMP_temperature;BMP_pressure;BME280_temperature;BME280_humidity;BME280_pressure;Samples;Min_cycle;Max_cycle;Signal;HPM_P1;HPM_P2
2021/12/11 09:09:44;;;;;;;1766.72;999.90;;;;;;;8.35;100.00;100473.72;5126751;27;20524;-76
2021/12/11 09:12:14;;;;;;;714.65;649.40;;;;;;;5.60;100.00;100490.13;5127051;27;20123;-76
2021/12/11 09:14:45;;;;;;;699.83;636.90;;;;;;;3.46;100.00;100496.50;5130151;27;20536;-75
2021/12/11 09:17:15;;;;;;;;;;;;;;;2.16;100.00;100513.09;5130388;27;20067;-74
2021/12/11 09:19:43;;;;;;;;;;;;;;;1.24;100.00;100507.66;5124839;28;20302;-76
2021/12/11 09:22:11;;;;;;;;;;;;;;;0.69;100.00;100522.53;5117823;27;67681;-76
2021/12/11 09:26:50;;;;;;;;;;;;;;;0.25;100.00;100533.31;5085359;27;11844;-76
2021/12/11 09:29:19;;;;;;;;;;;;;;;0.12;100.00;100531.16;5084637;28;1470;-75
2021/12/11 09:31:56;;;;;;;;;;;;;;;0.10;100.00;100533.00;5077570;28;1417;-76
2021/12/11 09:34:27;;;;;;;;;;;;;;;0.01;100.00;100548.53;5069410;28;784;-76
2021/12/11 09:36:57;;;;;;;;;;;;;;;-0.10;100.00;100549.81;5077170;28;1203;-75
2021/12/11 09:39:24;;;;;;;;;;;;;;;-0.08;100.00;100558.66;5083263;28;1303;-73
2021/12/11 09:41:51;;;;;;;;;;;;;;;-0.18;100.00;100560.78;5066279;28;1406;-74
2021/12/11 09:44:20;;;;;;;;;;;;;;;-0.11;100.00;100561.41;5067988;28;1258;-74
2021/12/11 09:46:48;;;;;;;;;;;;;;;-0.16;100.00;100563.44;5069730;28;1979;-75
2021/12/11 09:49:19;;;;;;;;;;;;;;;-0.20;100.00;100564.44;5068853;28;1293;-76
2021/12/11 09:51:46;;;;;;;;;;;;;;;-0.26;100.00;100570.03;5067310;28;1402;-76
2021/12/11 09:54:16;;;;;;;;;;;;;;;-0.20;100.00;100581.34;5068941;28;1215;-75
2021/12/11 09:56:44;;;;;;;;;;;;;;;-0.18;100.00;100587.47;5069481;28;842;-76
2021/12/11 09:59:13;;;;;;;;;;;;;;;-0.26;100.00;100586.91;5068708;28;1286;-75
2021/12/11 10:01:43;;;;;;;;;;;;;;;-0.32;100.00;100597.84;5068403;28;1517;-76
2021/12/11 10:04:12;;;;;;;;;;;;;;;-0.37;100.00;100594.47;5068805;28;973;-76
2021/12/11 10:06:45;;;;;;;;;;;;;;;-0.42;100.00;100597.28;5068694;28;1910;-76
2021/12/11 10:09:20;;;;;;;;;;;;;;;-0.43;100.00;100597.34;5068531;28;1314;-75
2021/12/11 10:12:05;;;;;;;;;;;;;;;-0.32;100.00;100600.50;5067358;28;974;-76
2021/12/11 10:14:33;;;;;;;;;;;;;;;-0.32;100.00;100608.50;5067330;28;1021;-76
2021/12/11 10:17:02;;;;;;;;;;;;;;;-0.39;100.00;100612.31;5068899;28;1346;-75
2021/12/11 10:19:29;;;;;;;;;;;;;;;-0.31;100.00;100615.56;5067638;28;1307;-78
2021/12/11 10:21:58;;;;;;;;;;;;;;;-0.23;100.00;100617.94;5068360;28;812;-75
2021/12/11 10:24:26;;;;;;;;;;;;;;;-0.19;100.00;100622.22;5069175;28;833;-76
2021/12/11 10:26:53;;;;;;;;;;;;;;;-0.29;100.00;100624.38;5088035;28;1917;-77
2021/12/11 10:29:20;;;;;;;;;;;;;;;-0.26;100.00;100623.41;5088279;28;1246;-76
2021/12/11 10:31:48;;;;;;;;;;;;;;;-0.17;100.00;100620.38;5088814;28;1037;-77
2021/12/11 10:34:17;;;;;;;;;;;;;;;-0.04;100.00;100624.31;5089422;28;1097;-77
2021/12/11 10:36:47;;;;;;;;;;;;;;;0.08;100.00;100627.44;5082231;28;1397;-77
2021/12/11 10:39:15;;;;;;;;;;;;;;;0.01;100.00;100621.47;5074627;28;1285;-76
2021/12/11 10:41:42;;;;;;;;;;;;;;;-0.04;100.00;100626.09;5073479;28;2736;-76
2021/12/11 10:44:11;;;;;;;;;;;;;;;-0.13;100.00;100630.00;5086312;28;1124;-75
2021/12/11 10:46:38;;;;;;;;;;;;;;;-0.13;100.00;100634.47;5080386;28;1970;-75
2021/12/11 10:49:06;;;;;;;;;;;;;;;-0.14;100.00;100640.75;5085504;28;1317;-77
2021/12/11 10:51:39;;;;;;;;;;;;;;;-0.12;100.00;100639.75;5101971;28;1383;-76
2021/12/11 10:54:06;;;;;;;;;;;;;;;-0.23;100.00;100642.84;5097074;28;1115;-76
2021/12/11 10:56:32;;;;;;;;;;;;;;;-0.37;100.00;100647.81;5074110;28;1459;-74
2021/12/11 10:59:00;;;;;;;;;;;;;;;-0.49;100.00;100651.81;5073441;28;1354;-76
2021/12/11 11:01:29;;;;;;;;;;;;;;;-0.46;100.00;100656.16;5074753;28;990;-76
2021/12/11 11:03:59;;;;;;;;;;;;;;;-0.31;100.00;100660.91;5074456;28;958;-76
2021/12/11 11:06:25;;;;;;;;;;;;;;;-0.30;100.00;100664.47;5073859;28;1918;-77
2021/12/11 11:08:54;;;;;;;;;;;;;;;-0.25;100.00;100667.84;5074579;28;1372;-76
2021/12/11 11:11:22;;;;;;;;;;;;;;;-0.38;100.00;100668.28;5074213;28;1130;-76
2021/12/11 11:13:49;;;;;;;;;;;;;;;-0.40;100.00;100679.91;5074276;28;871;-75
2021/12/11 11:16:16;;;;;;;;;;;;;;;-0.38;100.00;100688.75;5073921;28;1325;-76
2021/12/11 11:18:43;;;;;;;;;;;;;;;-0.41;100.00;100688.88;5056329;28;1302;-74
2021/12/11 11:21:10;;;;;;;;;;;;;;;-0.47;100.00;100686.41;5055646;28;1465;-75
2021/12/11 11:23:36;;;;;;;;;;;;;;;-0.38;100.00;100689.59;5036305;28;931;-77
2021/12/11 11:26:06;;;;;;;;;;;;;;;-0.42;100.00;100684.44;5054535;28;1950;-75
2021/12/11 11:28:34;;;;;;;;;;;;;;;-0.38;100.00;100686.09;5073843;28;1532;-76
2021/12/11 11:31:02;;;;;;;;;;;;;;;-0.27;100.00;100694.56;5073597;28;1029;-76
2021/12/11 11:33:29;;;;;;;;;;;;;;;-0.28;100.00;100695.50;5073969;28;1024;-77
2021/12/11 11:35:56;;;;;;;;;;;;;;;-0.15;100.00;100701.22;5073385;28;1545;-77
2021/12/11 11:38:24;;;;;;;;;;;;;;;-0.26;100.00;100712.31;5074121;28;1314;-76
2021/12/11 11:40:56;;;;;;;;;;;;;;;-0.25;100.00;100706.06;5079019;28;1155;-77
2021/12/11 11:43:24;;;;;;;;;;;;;;;-0.27;100.00;100715.88;5083477;28;1279;-76
2021/12/11 11:45:52;;;;;;;;;;;;;;;-0.32;100.00;100720.56;5091960;28;1913;-76
2021/12/11 11:48:19;;;;;;;;;;;;;;;-0.35;100.00;100720.63;5072619;28;1356;-75
2021/12/11 11:50:47;;;;;;;;;;;;;;;-0.51;100.00;100726.53;5055325;28;796;-76
2021/12/11 11:53:14;;;;;;;;;;;;;;;-0.47;100.00;100732.59;5055963;28;919;-75
2021/12/11 11:55:43;;;;;;;;;;;;;;;-0.36;100.00;100732.22;5072532;28;1549;-77
2021/12/11 11:58:09;;;;;;;;;;;;;;;-0.37;100.00;100741.19;5075319;28;1549;-78
2021/12/11 12:00:41;;;;;;;;;;;;;;;-0.44;100.00;100748.53;5074704;28;808;-77
2021/12/11 12:03:08;;;;;;;;;;;;;;;-0.45;100.00;100756.59;5060408;28;1271;-76
2021/12/11 12:05:37;;;;;;;;;;;;;;;-0.49;100.00;100754.94;5090246;28;1906;-77
2021/12/11 12:08:03;;;;;;;;;;;;;;;-0.46;100.00;100757.50;5054416;28;1532;-76
2021/12/11 12:10:29;;;;;;;;;;;;;;;-0.37;100.00;100770.53;5053462;28;963;-77
2021/12/11 12:12:56;;;;;;;;;;;;;;;-0.30;100.00;100774.72;5072089;28;729;-76
2021/12/11 12:15:24;;;;;;;;;;;;;;;-0.28;100.00;100786.22;5053739;28;867;-74
2021/12/11 12:17:51;;;;;;;;;;;;;;;-0.26;100.00;100784.34;5071447;28;1401;-76
2021/12/11 12:20:18;;;;;;;;;;;;;;;-0.19;100.00;100788.56;5071215;28;1441;-76
2021/12/11 12:22:46;;;;;;;;;;;;;;;-0.18;100.00;100792.94;5072302;28;1038;-76
2021/12/11 12:25:12;;;;;;;;;;;;;;;-0.17;100.00;100783.16;5054972;28;923;-76
2021/12/11 12:27:42;;;;;;;;;;;;;;;-0.25;100.00;100790.56;5072817;28;1918;-76
2021/12/11 12:30:10;;;;;;;;;;;;;;;-0.29;100.00;100795.13;5072462;28;1282;-77
2021/12/11 12:32:36;;;;;;;;;;;;;;;-0.30;100.00;100798.72;5054747;28;1405;-74
2021/12/11 12:35:07;;;;;;;;;;;;;;;-0.41;100.00;100806.22;5072896;28;915;-76
2021/12/11 12:37:34;;;;;;;;;;;;;;;-0.51;100.00;100809.22;5072765;28;994;-75
2021/12/11 12:40:01;;;;;;;;;;;;;;;-0.51;100.00;100819.88;5072856;28;1296;-77
2021/12/11 12:42:33;;;;;;;;;;;;;;;-0.54;100.00;100821.78;5072388;28;1393;-77
2021/12/11 12:45:01;;;;;;;;;;;;;;;-0.44;100.00;100828.56;5038089;28;1365;-76
2021/12/11 12:47:29;;;;;;;;;;;;;;;-0.45;100.00;100836.59;5038073;28;1983;-76
2021/12/11 12:49:57;;;;;;;;;;;;;;;-0.44;100.00;100833.88;5054576;28;1314;-76
2021/12/11 12:52:28;;;;;;;;;;;;;;;-0.38;100.00;100838.13;5072243;28;1389;-76
2021/12/11 12:54:55;;;;;;;;;;;;;;;-0.35;100.00;100840.69;5072829;28;757;-76
2021/12/11 12:57:23;;;;;;;;;;;;;;;-0.38;100.00;100840.78;5072309;28;1495;-75
2021/12/11 12:59:54;;;;;;;;;;;;;;;-0.47;100.00;100838.44;5073258;28;1354;-77
2021/12/11 13:02:22;;;;;;;;;;;;;;;-0.36;100.00;100830.94;5071895;28;1392;-77
2021/12/11 13:04:51;;;;;;;;;;;;;;;-0.40;100.00;100846.19;5072473;28;757;-77
2021/12/11 13:07:18;;;;;;;;;;;;;;;-0.41;100.00;100838.25;5072597;28;1910;-76
2021/12/11 13:09:48;;;;;;;;;;;;;;;-0.39;100.00;100847.06;5072711;28;1297;-77
2021/12/11 13:12:15;;;;;;;;;;;;;;;-0.34;100.00;100845.97;5073096;28;1017;-76
2021/12/11 13:14:42;;;;;;;;;;;;;;;-0.44;100.00;100846.31;5073718;28;1034;-77
2021/12/11 13:17:10;;;;;;;;;;;;;;;-0.41;100.00;100843.56;5072931;28;1449;-76
2021/12/11 13:19:38;;;;;;;;;;;;;;;-0.54;100.00;100841.31;5073209;28;1380;-78
2021/12/11 13:22:06;;;;;;;;;;;;;;;-0.52;100.00;100850.13;5072747;28;1040;-76
2021/12/11 13:24:32;;;;;;;;;;;;;;;-0.53;100.00;100848.38;5072369;28;950;-77
2021/12/11 13:27:02;;;;;;;;;;;;;;;-0.52;100.00;100847.47;5054449;28;1964;-78
2021/12/11 13:29:30;;;;;;;;;;;;;;;-0.52;100.00;100852.81;5072407;28;1325;-78
2021/12/11 13:32:00;;;;;;;;;;;;;;;-0.54;100.00;100859.09;5072702;28;1031;-75
2021/12/11 13:34:27;;;;;;;;;;;;;;;-0.47;100.00;100859.78;5070931;28;2223;-78
2021/12/11 13:36:53;;;;;;;;;;;;;;;-0.45;100.00;100871.28;5080928;28;1236;-75
2021/12/11 13:39:19;;;;;;;;;;;;;;;-0.46;100.00;100877.53;5057746;28;1278;-75
2021/12/11 13:41:47;;;;;;;;;;;;;;;-0.43;100.00;100877.41;5106355;28;1337;-77
2021/12/11 13:44:16;;;;;;;;;;;;;;;-0.45;100.00;100885.47;5093759;28;1151;-80
2021/12/11 13:46:43;;;;;;;;;;;;;;;-0.52;100.00;100882.13;5107110;28;1914;-77
2021/12/11 13:49:09;;;;;;;;;;;;;;;-0.65;100.00;100894.13;5072735;28;1332;-78
2021/12/11 13:51:37;;;;;;;;;;;;;;;-0.61;100.00;100887.78;5072537;28;1178;-75
2021/12/11 13:54:04;;;;;;;;;;;;;;;-0.57;100.00;100907.22;5054720;28;748;-77
2021/12/11 13:56:32;;;;;;;;;;;;;;;-0.55;100.00;100916.03;5072117;28;934;-78
2021/12/11 13:58:58;;;;;;;;;;;;;;;-0.65;100.00;100919.94;5054449;28;1290;-78
2021/12/11 14:01:29;;;;;;;;;;;;;;;-0.62;100.00;100922.50;5071805;28;859;-78
2021/12/11 14:03:56;;;;;;;;;;;;;;;-0.69;100.00;100935.16;5072383;28;926;-75
2021/12/11 14:06:26;;;;;;;;;;;;;;;-0.76;100.00;100934.47;5071765;28;1963;-77
2021/12/11 14:08:55;;;;;;;;;;;;;;;-0.79;100.00;100949.66;5072266;28;1351;-77
2021/12/11 14:11:22;;;;;;;;;;;;;;;-0.88;100.00;100950.84;5071908;28;784;-77
2021/12/11 14:13:48;;;;;;;;;;;;;;;-0.91;100.00;100957.13;5076147;28;950;-76
2021/12/11 14:16:16;;;;;;;;;;;;;;;-1.01;100.00;100959.19;5057775;28;825;-75
2021/12/11 14:18:46;;;;;;;;;;;;;;;-1.04;100.00;100959.28;5076132;28;1359;-76
2021/12/11 14:21:12;;;;;;;;;;;;;;;-1.09;100.00;100963.84;5075429;28;1400;-78
2021/12/11 14:23:41;;;;;;;;;;;;;;;-1.03;100.00;100958.38;5075936;28;837;-78
2021/12/11 14:26:08;;;;;;;;;;;;;;;-1.01;100.00;100960.97;5058653;28;1902;-76
2021/12/11 14:28:35;;;;;;;;;;;;;;;-1.03;100.00;100966.34;5066238;28;1384;-78
2021/12/11 14:31:03;;;;;;;;;;;;;;;-1.05;100.00;100975.31;5075842;28;843;-75
2021/12/11 14:33:31;;;;;;;;;;;;;;;-1.04;100.00;100982.41;5075145;28;974;-76
2021/12/11 14:36:00;;;;;;;;;;;;;;;-1.00;100.00;100986.72;5075520;28;974;-76
2021/12/11 14:38:26;;;;;;;;;;;;;;;-0.98;100.00;100992.00;5076636;28;1254;-80
2021/12/11 14:40:54;;;;;;;;;;;;;;;-0.95;100.00;100998.13;5080701;28;863;-79
2021/12/11 14:43:22;;;;;;;;;;;;;;;-0.98;100.00;101006.19;5078790;28;922;-78
2021/12/11 14:45:49;;;;;;;;;;;;;;;-0.99;100.00;101001.75;5078911;28;986;-76
2021/12/11 14:48:15;;;;;;;;;;;;;;;-0.98;100.00;101019.50;5093200;28;1981;-77
2021/12/11 14:50:44;;;;;;;;;;;;;;;-1.04;100.00;101014.38;5075194;28;1474;-78
2021/12/11 14:53:13;;;;;;;;;;;;;;;-1.09;100.00;101019.81;5057490;28;1131;-79
2021/12/11 14:55:41;;;;;;;;;;;;;;;-1.12;100.00;101027.00;5075505;28;774;-77
2021/12/11 14:58:08;;;;;;;;;;;;;;;-1.06;100.00;101027.72;5074878;28;1352;-78
2021/12/11 15:00:36;;;;;;;;;;;;;;;-1.08;100.00;101031.34;5074560;28;809;-79
2021/12/11 15:03:02;;;;;;;;;;;;;;;-1.08;100.00;101026.00;5056870;28;1200;-77
2021/12/11 15:05:30;;;;;;;;;;;;;;;-1.13;100.00;101030.63;5075149;28;816;-78
2021/12/11 15:07:57;;;;;;;;;;;;;;;-1.12;100.00;101027.91;5074562;28;2366;-77
2021/12/11 15:10:27;;;;;;;;;;;;;;;-1.19;100.00;101026.31;5073188;28;1269;-79
2021/12/11 15:12:53;;;;;;;;;;;;;;;-1.16;100.00;101028.91;5074719;28;750;-77
2021/12/11 15:15:19;;;;;;;;;;;;;;;-1.11;100.00;101040.31;5075808;28;993;-76
2021/12/11 15:17:46;;;;;;;;;;;;;;;-1.17;100.00;101040.47;5076026;28;760;-77
2021/12/11 15:20:15;;;;;;;;;;;;;;;-1.20;100.00;101041.44;5074960;28;1328;-78
2021/12/11 15:22:41;;;;;;;;;;;;;;;-1.22;100.00;101043.25;5090275;28;1001;-79
2021/12/11 15:25:11;;;;;;;;;;;;;;;-1.22;100.00;101059.22;5058079;28;1026;-77
2021/12/11 15:27:41;;;;;;;;;;;;;;;-1.23;100.00;101054.84;5075700;28;1959;-78
2021/12/11 15:30:09;;;;;;;;;;;;;;;-1.19;100.00;101068.94;5108319;28;1258;-78
2021/12/11 15:32:36;;;;;;;;;;;;;;;-1.22;100.00;101059.22;5076001;28;1033;-79
2021/12/11 15:35:02;;;;;;;;;;;;;;;-1.16;100.00;101070.66;5075882;28;772;-78
2021/12/11 15:37:29;;;;;;;;;;;;;;;-1.19;100.00;101071.59;5075682;28;1089;-79
2021/12/11 15:39:57;;;;;;;;;;;;;;;-1.16;100.00;101078.63;5108575;28;1280;-79
2021/12/11 15:42:23;;;;;;;;;;;;;;;-1.16;100.00;101078.63;5075562;28;970;-77
2021/12/11 15:44:54;;;;;;;;;;;;;;;-1.12;100.00;101090.97;5075191;28;812;-79
2021/12/11 15:47:22;;;;;;;;;;;;;;;-1.16;100.00;101090.19;5106851;28;1902;-79
2021/12/11 15:49:48;;;;;;;;;;;;;;;-1.11;100.00;101092.72;5074111;28;1367;-79
2021/12/11 15:52:15;;;;;;;;;;;;;;;-1.08;100.00;101097.97;5073955;28;733;-78
2021/12/11 15:54:41;;;;;;;;;;;;;;;-1.05;100.00;101097.91;5074386;28;978;-78
2021/12/11 15:57:10;;;;;;;;;;;;;;;-1.09;100.00;101096.22;5081828;28;997;-79
2021/12/11 15:59:37;;;;;;;;;;;;;;;-1.08;100.00;101101.50;5074584;28;1282;-78
2021/12/11 16:02:05;;;;;;;;;;;;;;;-1.12;100.00;101105.19;5109043;28;1146;-78
2021/12/11 16:04:33;;;;;;;;;;;;;;;-1.16;100.00;101110.63;5078171;28;994;-78
2021/12/11 16:07:00;;;;;;;;;;;;;;;-1.16;100.00;101107.94;5080131;28;1967;-79
2021/12/11 16:09:28;;;;;;;;;;;;;;;-1.12;100.00;101113.19;5074258;28;1283;-76
2021/12/11 16:11:55;;;;;;;;;;;;;;;-1.10;100.00;101116.66;5107033;28;1129;-78
2021/12/11 16:14:22;;;;;;;;;;;;;;;-1.03;100.00;101122.69;5073699;28;801;-77
2021/12/11 16:16:49;;;;;;;;;;;;;;;-1.07;100.00;101121.94;5106355;28;1028;-77
2021/12/11 16:19:17;;;;;;;;;;;;;;;-1.04;100.00;101126.31;5089185;28;1391;-79
2021/12/11 16:21:43;;;;;;;;;;;;;;;-1.05;100.00;101136.06;5073913;28;1006;-77
2021/12/11 16:24:11;;;;;;;;;;;;;;;-1.08;100.00;101138.81;5073796;28;1052;-78
2021/12/11 16:26:39;;;;;;;;;;;;;;;-1.05;100.00;101137.88;5073643;28;1969;-78
2021/12/11 16:29:05;;;;;;;;;;;;;;;-1.06;100.00;101138.78;5094167;28;1366;-80
2021/12/11 16:31:33;;;;;;;;;;;;;;;-1.06;100.00;101133.44;5076226;28;1524;-79
2021/12/11 16:34:00;;;;;;;;;;;;;;;-1.12;100.00;101131.81;5088104;28;990;-79
2021/12/11 16:36:27;;;;;;;;;;;;;;;-1.14;100.00;101130.97;5062537;28;1110;-79
2021/12/11 16:38:55;;;;;;;;;;;;;;;-1.11;100.00;101133.59;5075361;28;1309;-78
2021/12/11 16:41:35;;;;;;;;;;;;;;;-1.20;100.00;101126.69;5074653;28;947;-79
2021/12/11 16:44:03;;;;;;;;;;;;;;;-1.17;100.00;101131.06;5075220;28;1021;-78
2021/12/11 16:46:32;;;;;;;;;;;;;;;-1.19;100.00;101133.78;5074939;28;1557;-79
2021/12/11 16:48:59;;;;;;;;;;;;;;;-1.15;100.00;101133.69;5075124;28;1917;-78
2021/12/11 16:51:25;;;;;;;;;;;;;;;-1.12;100.00;101134.50;5040404;28;1145;-79
2021/12/11 16:53:54;;;;;;;;;;;;;;;-1.11;100.00;101143.34;5075703;28;1108;-78
2021/12/11 16:56:23;;;;;;;;;;;;;;;-1.12;100.00;101138.94;5090694;28;1283;-79
2021/12/11 16:58:50;;;;;;;;;;;;;;;-1.11;100.00;101132.69;5056770;28;1336;-79
2021/12/11 17:01:17;;;;;;;;;;;;;;;-1.16;100.00;101130.16;5075013;28;792;-80
2021/12/11 17:03:43;;;;;;;;;;;;;;;-1.19;100.00;101131.09;5057414;28;989;-78
2021/12/11 17:06:13;;;;;;;;;;;;;;;-1.16;100.00;101124.81;5074560;28;953;-79
2021/12/11 17:08:39;;;;;;;;;;;;;;;-1.20;100.00;101131.16;5074625;28;1979;-79
2021/12/11 17:11:06;;;;;;;;;;;;;;;-1.28;100.00;101134.00;5057550;28;1433;-79
2021/12/11 17:13:34;;;;;;;;;;;;;;;-1.32;100.00;101147.44;5074900;28;1021;-78
2021/12/11 17:16:00;;;;;;;;;;;;;;;-1.32;100.00;101158.09;5090870;28;965;-77
2021/12/11 17:18:31;;;;;;;;;;;;;;;-1.32;100.00;101169.63;5073685;28;1359;-79
2021/12/11 17:20:59;;;;;;;;;;;;;;;-1.32;100.00;101166.97;5057285;28;1143;-77
2021/12/11 17:23:25;;;;;;;;;;;;;;;-1.33;100.00;101167.00;5082656;28;915;-79
2021/12/11 17:25:56;;;;;;;;;;;;;;;-1.37;100.00;101171.53;5080077;28;835;-78
2021/12/11 17:28:25;;;;;;;;;;;;;;;-1.38;100.00;101167.09;5082539;28;1956;-79
2021/12/11 17:30:53;;;;;;;;;;;;;;;-1.36;100.00;101184.81;5088582;28;1435;-77
2021/12/11 17:33:19;;;;;;;;;;;;;;;-1.31;100.00;101190.03;5072933;28;931;-76
2021/12/11 17:35:46;;;;;;;;;;;;;;;-1.28;100.00;101189.06;5072871;28;1023;-77
2021/12/11 17:38:12;;;;;;;;;;;;;;;-1.27;100.00;101186.38;5074053;28;1379;-76
2021/12/11 17:40:39;;;;;;;;;;;;;;;-1.24;100.00;101194.28;5074815;28;988;-80
2021/12/11 17:43:06;;;;;;;;;;;;;;;-1.21;100.00;101186.22;5076365;28;895;-80
2021/12/11 17:45:34;;;;;;;;;;;;;;;-1.18;100.00;101193.25;5073963;28;931;-79
2021/12/11 17:48:03;;;;;;;;;;;;;;;-1.17;100.00;101194.16;5058382;28;1973;-77
2021/12/11 17:50:31;;;;;;;;;;;;;;;-1.20;100.00;101195.09;5077278;28;824;-79
2021/12/11 17:52:57;;;;;;;;;;;;;;;-1.21;100.00;101191.53;5059184;28;927;-79
2021/12/11 17:55:25;;;;;;;;;;;;;;;-1.25;100.00;101189.88;5060301;28;1025;-78
2021/12/11 17:57:51;;;;;;;;;;;;;;;-1.22;100.00;101195.13;5077584;28;1373;-77
2021/12/11 18:00:21;;;;;;;;;;;;;;;-1.25;100.00;101197.84;5076832;28;947;-77
2021/12/11 18:02:48;;;;;;;;;;;;;;;-1.25;100.00;101203.19;5077086;28;971;-79
2021/12/11 18:05:17;;;;;;;;;;;;;;;-1.24;100.00;101201.41;5059101;28;911;-79
2021/12/11 18:07:48;;;;;;;;;;;;;;;-1.24;100.00;101204.09;5042183;28;1907;-78
2021/12/11 18:10:16;;;;;;;;;;;;;;;-1.24;100.00;101204.94;5086467;28;966;-78
2021/12/11 18:12:45;;;;;;;;;;;;;;;-1.29;100.00;101206.84;5087147;28;1133;-78
2021/12/11 18:15:13;;;;;;;;;;;;;;;-1.29;100.00;101208.66;5077659;28;1039;-78
2021/12/11 18:17:41;;;;;;;;;;;;;;;-1.31;100.00;101208.69;5077062;28;1440;-78
2021/12/11 18:20:11;;;;;;;;;;;;;;;-1.28;100.00;101211.25;5075854;28;1333;-78
2021/12/11 18:22:39;;;;;;;;;;;;;;;-1.27;100.00;101209.47;5076262;28;1038;-79
2021/12/11 18:25:07;;;;;;;;;;;;;;;-1.30;100.00;101221.06;5076098;28;791;-78
2021/12/11 18:27:37;;;;;;;;;;;;;;;-1.30;100.00;101218.41;5076911;28;1898;-79
2021/12/11 18:30:05;;;;;;;;;;;;;;;-1.30;100.00;101221.06;5091824;28;1305;-79
2021/12/11 18:32:32;;;;;;;;;;;;;;;-1.32;100.00;101220.25;5109542;28;1509;-79
2021/12/11 18:35:00;;;;;;;;;;;;;;;-1.31;100.00;101232.66;5110088;28;1034;-78
2021/12/11 18:37:28;;;;;;;;;;;;;;;-1.30;100.00;101236.19;5077747;28;986;-79
2021/12/11 18:39:57;;;;;;;;;;;;;;;-1.34;100.00;101240.69;5084996;28;1331;-78
2021/12/11 18:42:25;;;;;;;;;;;;;;;-1.37;100.00;101235.47;5079024;28;943;-78
2021/12/11 18:44:54;;;;;;;;;;;;;;;-1.34;100.00;101240.69;5075771;28;1474;-77
2021/12/11 18:47:20;;;;;;;;;;;;;;;-1.38;100.00;101242.59;5080503;28;1918;-78
2021/12/11 18:49:49;;;;;;;;;;;;;;;-1.40;100.00;101240.88;5083368;28;1295;-78
2021/12/11 18:52:17;;;;;;;;;;;;;;;-1.43;100.00;101244.47;5078342;28;1029;-78
2021/12/11 18:54:44;;;;;;;;;;;;;;;-1.46;100.00;101241.00;5058202;28;817;-78
2021/12/11 18:57:14;;;;;;;;;;;;;;;-1.50;100.00;101234.84;5076804;28;866;-79
2021/12/11 18:59:41;;;;;;;;;;;;;;;-1.55;100.00;101234.97;5077487;28;1282;-79
2021/12/11 19:02:10;;;;;;;;;;;;;;;-1.60;100.00;101228.00;5076381;28;1026;-79
2021/12/11 19:04:39;;;;;;;;;;;;;;;-1.65;100.00;101228.09;5076763;28;1029;-78
2021/12/11 19:07:08;;;;;;;;;;;;;;;-1.67;100.00;101229.03;5058938;28;1244;-79
2021/12/11 19:09:35;;;;;;;;;;;;;;;-1.71;100.00;101242.44;5076346;28;1898;-78
2021/12/11 19:12:03;;;;;;;;;;;;;;;-1.68;100.00;101252.13;5059234;28;941;-78
2021/12/11 19:14:31;;;;;;;;;;;;;;;-1.71;100.00;101252.19;5076881;28;852;-78
2021/12/11 19:16:58;;;;;;;;;;;;;;;-1.74;100.00;101253.16;5058559;28;1121;-78
2021/12/11 19:19:25;;;;;;;;;;;;;;;-1.77;100.00;101258.53;5076328;28;1345;-79
2021/12/11 19:21:53;;;;;;;;;;;;;;;-1.75;100.00;101264.69;5084745;28;1401;-78
2021/12/11 19:24:21;;;;;;;;;;;;;;;-1.73;100.00;101264.66;5088872;28;1081;-78
2021/12/11 19:26:49;;;;;;;;;;;;;;;-1.72;100.00;101267.28;5041537;28;1132;-78
2021/12/11 19:29:16;;;;;;;;;;;;;;;-1.73;100.00;101267.31;5076086;28;1973;-79
2021/12/11 19:31:46;;;;;;;;;;;;;;;-1.75;100.00;101272.69;5075718;28;994;-78
2021/12/11 19:34:13;;;;;;;;;;;;;;;-1.75;100.00;101279.78;5076339;28;1695;-79
2021/12/11 19:36:41;;;;;;;;;;;;;;;-1.75;100.00;101277.13;5079252;28;1238;-78
2021/12/11 19:39:10;;;;;;;;;;;;;;;-1.76;100.00;101281.56;5065701;28;1309;-79
2021/12/11 19:41:38;;;;;;;;;;;;;;;-1.77;100.00;101276.28;5055056;28;823;-79
2021/12/11 19:44:05;;;;;;;;;;;;;;;-1.78;100.00;101279.84;5038002;28;1030;-79
2021/12/11 19:46:31;;;;;;;;;;;;;;;-1.80;100.00;101294.97;5055629;28;784;-79
2021/12/11 19:48:59;;;;;;;;;;;;;;;-1.81;100.00;101298.56;5055409;28;1910;-78
2021/12/11 19:51:27;;;;;;;;;;;;;;;-1.82;100.00;101302.13;5038270;28;1237;-78
2021/12/11 19:53:54;;;;;;;;;;;;;;;-1.82;100.00;101307.44;5075445;28;800;-79
2021/12/11 19:56:21;;;;;;;;;;;;;;;-1.78;100.00;101307.34;5074649;28;1089;-77
2021/12/11 19:58:48;;;;;;;;;;;;;;;-1.78;100.00;101314.47;5075155;28;1298;-79
2021/12/11 20:01:20;;;;;;;;;;;;;;;-1.79;100.00;101307.38;5075255;28;978;-78
2021/12/11 20:03:49;;;;;;;;;;;;;;;-1.80;100.00;101309.16;5080986;28;971;-78
2021/12/11 20:06:18;;;;;;;;;;;;;;;-1.84;100.00;101307.47;5084467;28;966;-78
2021/12/11 20:08:51;;;;;;;;;;;;;;;-1.86;100.00;101312.84;5084670;28;1985;-79
2021/12/11 20:11:19;;;;;;;;;;;;;;;-1.82;100.00;101315.44;5076634;28;1392;-78
2021/12/11 20:13:45;;;;;;;;;;;;;;;-1.81;100.00;101314.53;5074462;28;812;-78
2021/12/11 20:16:14;;;;;;;;;;;;;;;-1.82;100.00;101328.75;5076384;28;892;-78
2021/12/11 20:18:43;;;;;;;;;;;;;;;-1.83;100.00;101326.97;5081709;28;1263;-78
2021/12/11 20:21:10;;;;;;;;;;;;;;;-1.84;100.00;101331.44;5078951;28;963;-77
2021/12/11 20:23:38;;;;;;;;;;;;;;;-1.85;100.00;101338.53;5074240;28;1110;-78
2021/12/11 20:26:05;;;;;;;;;;;;;;;-1.86;100.00;101342.13;5073560;28;937;-78
2021/12/11 20:28:31;;;;;;;;;;;;;;;-1.90;100.00;101336.88;5073979;28;1977;-79
2021/12/11 20:30:59;;;;;;;;;;;;;;;-1.91;100.00;101336.00;5073653;28;877;-78
2021/12/11 20:33:26;;;;;;;;;;;;;;;-1.92;100.00;101347.56;5074211;28;958;-78
2021/12/11 20:35:53;;;;;;;;;;;;;;;-1.95;100.00;101350.28;5073584;28;875;-78
2021/12/11 20:38:20;;;;;;;;;;;;;;;-1.98;100.00;101346.78;5073355;28;1330;-78
2021/12/11 20:40:49;;;;;;;;;;;;;;;-1.97;100.00;101356.53;5072921;28;954;-78
2021/12/11 20:43:16;;;;;;;;;;;;;;;-1.99;100.00;101353.91;5073320;28;898;-77
2021/12/11 20:45:44;;;;;;;;;;;;;;;-2.00;100.00;101356.56;5073694;28;1482;-78
2021/12/11 20:48:10;;;;;;;;;;;;;;;-2.02;100.00;101353.94;5073758;28;1914;-77
2021/12/11 20:50:38;;;;;;;;;;;;;;;-2.07;100.00;101366.47;5057628;28;1346;-79
2021/12/11 20:53:05;;;;;;;;;;;;;;;-2.04;100.00;101369.09;5056785;28;974;-78
2021/12/11 20:55:33;;;;;;;;;;;;;;;-2.04;100.00;101371.75;5073362;28;882;-77
2021/12/11 20:58:02;;;;;;;;;;;;;;;-2.06;100.00;101366.47;5072763;28;1521;-78
2021/12/11 21:00:30;;;;;;;;;;;;;;;-2.06;100.00;101363.78;5072824;28;879;-78
2021/12/11 21:02:57;;;;;;;;;;;;;;;-2.07;100.00;101363.78;5056464;28;1104;-79
2021/12/11 21:05:26;;;;;;;;;;;;;;;-2.10;100.00;101366.53;5059552;28;903;-78
2021/12/11 21:07:53;;;;;;;;;;;;;;;-2.11;100.00;101370.97;5058131;28;1430;-79
2021/12/11 21:10:21;;;;;;;;;;;;;;;-2.11;100.00;101375.41;5073011;28;1909;-77
2021/12/11 21:12:51;;;;;;;;;;;;;;;-2.10;100.00;101371.84;5072996;28;1063;-78
2021/12/11 21:15:22;;;;;;;;;;;;;;;-2.12;100.00;101379.00;5073204;28;867;-77
2021/12/11 21:17:49;;;;;;;;;;;;;;;-2.07;100.00;101380.66;5072438;28;1405;-78
2021/12/11 21:20:20;;;;;;;;;;;;;;;-2.04;100.00;101382.38;5055917;28;1174;-77
2021/12/11 21:22:47;;;;;;;;;;;;;;;-2.06;100.00;101390.41;5076800;28;939;-77
2021/12/11 21:25:16;;;;;;;;;;;;;;;-2.08;100.00;101389.53;5073053;28;903;-77
2021/12/11 21:27:43;;;;;;;;;;;;;;;-2.08;100.00;101388.66;5054698;28;1445;-76
2021/12/11 21:30:11;;;;;;;;;;;;;;;-2.08;100.00;101391.34;5076306;28;1910;-77
2021/12/11 21:32:39;;;;;;;;;;;;;;;-2.08;100.00;101392.19;5075836;28;788;-76
2021/12/11 21:35:07;;;;;;;;;;;;;;;-2.14;100.00;101399.41;5073307;28;865;-78
2021/12/11 21:37:34;;;;;;;;;;;;;;;-2.15;100.00;101406.53;5073484;28;903;-77
2021/12/11 21:40:03;;;;;;;;;;;;;;;-2.15;100.00;101398.56;5108932;28;1386;-77
2021/12/11 21:42:31;;;;;;;;;;;;;;;-2.15;100.00;101395.00;5078542;28;1348;-77
2021/12/11 21:44:59;;;;;;;;;;;;;;;-2.23;100.00;101392.47;5083339;28;1236;-77
2021/12/11 21:47:26;;;;;;;;;;;;;;;-2.27;100.00;101394.31;5086773;28;1064;-79
2021/12/11 21:49:56;;;;;;;;;;;;;;;-2.29;100.00;101389.94;5082448;28;1989;-77
2021/12/11 21:52:25;;;;;;;;;;;;;;;-2.32;100.00;101396.16;5060102;28;931;-77